sensor_id;sensor_type;location;lat;lon;timestamp;P1;durP1;ratioP1;P2;durP2;ratioP2
7493;SDS011;3788;49.902;8.590;2023-07-31T00:01:03;4.50;;;2.10;;
7493;SDS011;3788;49.902;8.590;2023-07-31T00:03:29;3.87;;;1.80;;
7493;SDS011;3788;49.902;8.590;2023-07-31T00:05:56;2.13;;;1.53;;
7493;SDS011;3788;49.902;8.590;2023-07-31T00:08:24;3.17;;;1.40;;
7493;SDS011;3788;49.902;8.590;2023-07-31T00:10:51;3.47;;;1.60;;
7493;SDS011;3788;49.902;8.590;2023-07-31T00:13:18;3.37;;;1.80;;
7493;SDS011;3788;49.902;8.590;2023-07-31T00:15:45;3.47;;;1.50;;
7493;SDS011;3788;49.902;8.590;2023-07-31T00:18:11;2.37;;;1.47;;
7493;SDS011;3788;49.902;8.590;2023-07-31T00:20:38;3.50;;;1.70;;
7493;SDS011;3788;49.902;8.590;2023-07-31T00:23:05;2.47;;;1.80;;
7493;SDS011;3788;49.902;8.590;2023-07-31T00:25:33;4.23;;;1.20;;
7493;SDS011;3788;49.902;8.590;2023-07-31T00:28:00;3.67;;;1.80;;
7493;SDS011;3788;49.902;8.590;2023-07-31T00:30:27;1.60;;;1.50;;
7493;SDS011;3788;49.902;8.590;2023-07-31T00:32:53;2.33;;;1.80;;
7493;SDS011;3788;49.902;8.590;2023-07-31T00:35:20;3.53;;;1.40;;
7493;SDS011;3788;49.902;8.590;2023-07-31T00:37:47;2.80;;;1.53;;
7493;SDS011;3788;49.902;8.590;2023-07-31T00:40:13;1.80;;;1.63;;
7493;SDS011;3788;49.902;8.590;2023-07-31T00:42:41;2.60;;;1.70;;
7493;SDS011;3788;49.902;8.590;2023-07-31T00:45:08;4.20;;;1.70;;
7493;SDS011;3788;49.902;8.590;2023-07-31T00:47:35;4.83;;;1.93;;
7493;SDS011;3788;49.902;8.590;2023-07-31T00:50:02;2.63;;;1.57;;
7493;SDS011;3788;49.902;8.590;2023-07-31T00:52:29;3.07;;;1.70;;
7493;SDS011;3788;49.902;8.590;2023-07-31T00:54:56;4.50;;;1.97;;
7493;SDS011;3788;49.902;8.590;2023-07-31T00:57:22;3.00;;;1.80;;
7493;SDS011;3788;49.902;8.590;2023-07-31T00:59:51;3.73;;;1.83;;
7493;SDS011;3788;49.902;8.590;2023-07-31T01:02:17;1.57;;;1.23;;
7493;SDS011;3788;49.902;8.590;2023-07-31T01:04:44;1.60;;;1.50;;
7493;SDS011;3788;49.902;8.590;2023-07-31T01:07:13;2.10;;;1.47;;
7493;SDS011;3788;49.902;8.590;2023-07-31T01:09:47;2.17;;;1.63;;
7493;SDS011;3788;49.902;8.590;2023-07-31T01:12:20;2.40;;;1.57;;
7493;SDS011;3788;49.902;8.590;2023-07-31T01:15:02;4.60;;;1.80;;
7493;SDS011;3788;49.902;8.590;2023-07-31T01:17:29;2.03;;;1.60;;
7493;SDS011;3788;49.902;8.590;2023-07-31T01:19:59;2.57;;;1.60;;
7493;SDS011;3788;49.902;8.590;2023-07-31T01:22:37;2.70;;;1.50;;
7493;SDS011;3788;49.902;8.590;2023-07-31T01:25:16;2.23;;;1.80;;
7493;SDS011;3788;49.902;8.590;2023-07-31T01:27:59;3.30;;;1.67;;
7493;SDS011;3788;49.902;8.590;2023-07-31T01:30:32;3.20;;;1.90;;
7493;SDS011;3788;49.902;8.590;2023-07-31T01:33:01;4.43;;;1.87;;
7493;SDS011;3788;49.902;8.590;2023-07-31T01:35:32;2.40;;;1.60;;
7493;SDS011;3788;49.902;8.590;2023-07-31T01:37:59;2.77;;;1.60;;
7493;SDS011;3788;49.902;8.590;2023-07-31T01:40:26;2.20;;;1.80;;
7493;SDS011;3788;49.902;8.590;2023-07-31T01:42:52;1.70;;;1.40;;
7493;SDS011;3788;49.902;8.590;2023-07-31T01:45:20;2.77;;;1.60;;
7493;SDS011;3788;49.902;8.590;2023-07-31T01:47:47;3.87;;;1.90;;
7493;SDS011;3788;49.902;8.590;2023-07-31T01:50:14;2.80;;;1.67;;
7493;SDS011;3788;49.902;8.590;2023-07-31T01:52:40;2.43;;;1.70;;
7493;SDS011;3788;49.902;8.590;2023-07-31T01:55:07;6.43;;;2.20;;
7493;SDS011;3788;49.902;8.590;2023-07-31T01:57:36;1.93;;;1.27;;
7493;SDS011;3788;49.902;8.590;2023-07-31T02:00:03;3.63;;;1.90;;
7493;SDS011;3788;49.902;8.590;2023-07-31T02:02:32;5.00;;;2.17;;
7493;SDS011;3788;49.902;8.590;2023-07-31T02:04:59;3.47;;;1.70;;
7493;SDS011;3788;49.902;8.590;2023-07-31T02:07:26;3.10;;;1.97;;
7493;SDS011;3788;49.902;8.590;2023-07-31T02:09:52;2.50;;;1.83;;
7493;SDS011;3788;49.902;8.590;2023-07-31T02:12:19;3.43;;;1.80;;
7493;SDS011;3788;49.902;8.590;2023-07-31T02:14:46;3.57;;;1.70;;
7493;SDS011;3788;49.902;8.590;2023-07-31T02:17:12;3.93;;;1.63;;
7493;SDS011;3788;49.902;8.590;2023-07-31T02:19:40;2.67;;;1.83;;
7493;SDS011;3788;49.902;8.590;2023-07-31T02:22:07;1.63;;;1.53;;
7493;SDS011;3788;49.902;8.590;2023-07-31T02:24:36;3.00;;;1.80;;
7493;SDS011;3788;49.902;8.590;2023-07-31T02:27:03;2.20;;;1.63;;
7493;SDS011;3788;49.902;8.590;2023-07-31T02:29:30;3.27;;;1.93;;
7493;SDS011;3788;49.902;8.590;2023-07-31T02:31:58;2.90;;;1.73;;
7493;SDS011;3788;49.902;8.590;2023-07-31T02:34:25;3.47;;;1.87;;
7493;SDS011;3788;49.902;8.590;2023-07-31T02:36:53;1.47;;;1.30;;
7493;SDS011;3788;49.902;8.590;2023-07-31T02:39:19;3.83;;;1.90;;
7493;SDS011;3788;49.902;8.590;2023-07-31T02:41:46;4.87;;;2.10;;
7493;SDS011;3788;49.902;8.590;2023-07-31T02:44:13;6.63;;;1.97;;
7493;SDS011;3788;49.902;8.590;2023-07-31T02:46:39;3.63;;;1.77;;
7493;SDS011;3788;49.902;8.590;2023-07-31T02:49:06;4.37;;;1.90;;
7493;SDS011;3788;49.902;8.590;2023-07-31T02:51:33;4.23;;;2.07;;
7493;SDS011;3788;49.902;8.590;2023-07-31T02:54:01;5.17;;;2.03;;
7493;SDS011;3788;49.902;8.590;2023-07-31T02:56:27;3.77;;;2.00;;
7493;SDS011;3788;49.902;8.590;2023-07-31T02:58:54;3.77;;;1.90;;
7493;SDS011;3788;49.902;8.590;2023-07-31T03:01:21;2.37;;;1.90;;
7493;SDS011;3788;49.902;8.590;2023-07-31T03:03:47;4.80;;;1.93;;
7493;SDS011;3788;49.902;8.590;2023-07-31T03:06:14;5.27;;;2.10;;
7493;SDS011;3788;49.902;8.590;2023-07-31T03:08:41;2.90;;;1.77;;
7493;SDS011;3788;49.902;8.590;2023-07-31T03:11:09;6.03;;;1.90;;
7493;SDS011;3788;49.902;8.590;2023-07-31T03:13:35;3.07;;;1.80;;
7493;SDS011;3788;49.902;8.590;2023-07-31T03:16:02;3.83;;;1.80;;
7493;SDS011;3788;49.902;8.590;2023-07-31T03:18:29;3.07;;;2.10;;
7493;SDS011;3788;49.902;8.590;2023-07-31T03:20:56;4.00;;;2.20;;
7493;SDS011;3788;49.902;8.590;2023-07-31T03:23:22;2.93;;;2.00;;
7493;SDS011;3788;49.902;8.590;2023-07-31T03:25:56;3.40;;;2.30;;
7493;SDS011;3788;49.902;8.590;2023-07-31T03:28:25;3.43;;;2.10;;
7493;SDS011;3788;49.902;8.590;2023-07-31T03:30:52;3.10;;;2.17;;
7493;SDS011;3788;49.902;8.590;2023-07-31T03:33:19;5.87;;;2.43;;
7493;SDS011;3788;49.902;8.590;2023-07-31T03:35:46;2.83;;;1.90;;
7493;SDS011;3788;49.902;8.590;2023-07-31T03:38:13;2.77;;;2.03;;
7493;SDS011;3788;49.902;8.590;2023-07-31T03:40:39;3.93;;;1.87;;
7493;SDS011;3788;49.902;8.590;2023-07-31T03:43:06;3.40;;;1.77;;
7493;SDS011;3788;49.902;8.590;2023-07-31T03:45:34;4.20;;;2.00;;
7493;SDS011;3788;49.902;8.590;2023-07-31T03:48:01;3.47;;;2.20;;
7493;SDS011;3788;49.902;8.590;2023-07-31T03:50:28;2.47;;;1.70;;
7493;SDS011;3788;49.902;8.590;2023-07-31T03:52:55;3.37;;;2.17;;
7493;SDS011;3788;49.902;8.590;2023-07-31T03:55:21;3.20;;;1.63;;
7493;SDS011;3788;49.902;8.590;2023-07-31T03:57:48;4.40;;;2.13;;
7493;SDS011;3788;49.902;8.590;2023-07-31T04:00:15;3.53;;;2.00;;
7493;SDS011;3788;49.902;8.590;2023-07-31T04:02:43;2.57;;;2.07;;
7493;SDS011;3788;49.902;8.590;2023-07-31T04:05:09;3.57;;;2.13;;
7493;SDS011;3788;49.902;8.590;2023-07-31T04:07:36;4.67;;;2.00;;
7493;SDS011;3788;49.902;8.590;2023-07-31T04:10:03;3.00;;;1.83;;
7493;SDS011;3788;49.902;8.590;2023-07-31T04:12:30;3.50;;;2.17;;
7493;SDS011;3788;49.902;8.590;2023-07-31T04:14:57;5.00;;;2.27;;
7493;SDS011;3788;49.902;8.590;2023-07-31T04:17:24;3.67;;;2.03;;
7493;SDS011;3788;49.902;8.590;2023-07-31T04:19:52;2.77;;;1.80;;
7493;SDS011;3788;49.902;8.590;2023-07-31T04:22:18;4.37;;;2.20;;
7493;SDS011;3788;49.902;8.590;2023-07-31T04:24:45;3.10;;;2.17;;
7493;SDS011;3788;49.902;8.590;2023-07-31T04:27:12;5.60;;;2.37;;
7493;SDS011;3788;49.902;8.590;2023-07-31T04:29:38;3.53;;;2.20;;
7493;SDS011;3788;49.902;8.590;2023-07-31T04:32:07;4.90;;;2.43;;
7493;SDS011;3788;49.902;8.590;2023-07-31T04:34:34;4.10;;;2.10;;
7493;SDS011;3788;49.902;8.590;2023-07-31T04:37:02;3.40;;;2.10;;
7493;SDS011;3788;49.902;8.590;2023-07-31T04:39:29;4.40;;;2.50;;
7493;SDS011;3788;49.902;8.590;2023-07-31T04:41:56;3.83;;;2.10;;
7493;SDS011;3788;49.902;8.590;2023-07-31T04:44:22;2.87;;;1.83;;
7493;SDS011;3788;49.902;8.590;2023-07-31T04:46:49;3.90;;;2.43;;
7493;SDS011;3788;49.902;8.590;2023-07-31T04:49:16;4.27;;;2.00;;
7493;SDS011;3788;49.902;8.590;2023-07-31T04:51:44;5.13;;;2.10;;
7493;SDS011;3788;49.902;8.590;2023-07-31T04:54:12;4.03;;;2.07;;
7493;SDS011;3788;49.902;8.590;2023-07-31T04:56:39;2.37;;;1.90;;
7493;SDS011;3788;49.902;8.590;2023-07-31T04:59:06;3.83;;;2.00;;
7493;SDS011;3788;49.902;8.590;2023-07-31T05:01:33;2.13;;;1.80;;
7493;SDS011;3788;49.902;8.590;2023-07-31T05:04:00;4.63;;;2.43;;
7493;SDS011;3788;49.902;8.590;2023-07-31T05:06:27;4.80;;;2.30;;
7493;SDS011;3788;49.902;8.590;2023-07-31T05:08:54;3.40;;;2.57;;
7493;SDS011;3788;49.902;8.590;2023-07-31T05:11:21;3.40;;;2.03;;
7493;SDS011;3788;49.902;8.590;2023-07-31T05:13:48;2.83;;;2.07;;
7493;SDS011;3788;49.902;8.590;2023-07-31T05:16:15;6.00;;;2.30;;
7493;SDS011;3788;49.902;8.590;2023-07-31T05:18:41;2.80;;;1.87;;
7493;SDS011;3788;49.902;8.590;2023-07-31T05:21:08;5.47;;;2.10;;
7493;SDS011;3788;49.902;8.590;2023-07-31T05:23:35;2.47;;;2.03;;
7493;SDS011;3788;49.902;8.590;2023-07-31T05:26:02;3.07;;;2.30;;
7493;SDS011;3788;49.902;8.590;2023-07-31T05:28:31;4.23;;;2.73;;
7493;SDS011;3788;49.902;8.590;2023-07-31T05:30:58;3.20;;;2.23;;
7493;SDS011;3788;49.902;8.590;2023-07-31T05:33:25;3.73;;;2.30;;
7493;SDS011;3788;49.902;8.590;2023-07-31T05:35:52;5.80;;;2.07;;
7493;SDS011;3788;49.902;8.590;2023-07-31T05:38:19;2.97;;;2.10;;
7493;SDS011;3788;49.902;8.590;2023-07-31T05:40:46;3.67;;;2.40;;
7493;SDS011;3788;49.902;8.590;2023-07-31T05:43:13;4.93;;;2.53;;
7493;SDS011;3788;49.902;8.590;2023-07-31T05:45:41;3.40;;;2.20;;
7493;SDS011;3788;49.902;8.590;2023-07-31T05:48:08;4.17;;;2.10;;
7493;SDS011;3788;49.902;8.590;2023-07-31T05:50:35;4.03;;;2.07;;
7493;SDS011;3788;49.902;8.590;2023-07-31T05:53:04;4.70;;;2.10;;
7493;SDS011;3788;49.902;8.590;2023-07-31T05:55:30;2.50;;;2.10;;
7493;SDS011;3788;49.902;8.590;2023-07-31T05:57:57;4.30;;;2.30;;
7493;SDS011;3788;49.902;8.590;2023-07-31T06:00:24;4.20;;;2.37;;
7493;SDS011;3788;49.902;8.590;2023-07-31T06:02:52;4.13;;;2.23;;
7493;SDS011;3788;49.902;8.590;2023-07-31T06:05:18;4.63;;;2.50;;
7493;SDS011;3788;49.902;8.590;2023-07-31T06:07:45;3.50;;;2.40;;
7493;SDS011;3788;49.902;8.590;2023-07-31T06:10:12;4.17;;;2.07;;
7493;SDS011;3788;49.902;8.590;2023-07-31T06:12:38;6.23;;;2.10;;
7493;SDS011;3788;49.902;8.590;2023-07-31T06:15:05;5.20;;;2.60;;
7493;SDS011;3788;49.902;8.590;2023-07-31T06:17:33;4.20;;;2.30;;
7493;SDS011;3788;49.902;8.590;2023-07-31T06:20:01;6.37;;;2.60;;
7493;SDS011;3788;49.902;8.590;2023-07-31T06:22:30;4.20;;;2.33;;
7493;SDS011;3788;49.902;8.590;2023-07-31T06:24:57;3.83;;;2.13;;
7493;SDS011;3788;49.902;8.590;2023-07-31T06:27:23;3.50;;;2.17;;
7493;SDS011;3788;49.902;8.590;2023-07-31T06:29:50;3.73;;;2.43;;
7493;SDS011;3788;49.902;8.590;2023-07-31T06:32:17;4.93;;;2.10;;
7493;SDS011;3788;49.902;8.590;2023-07-31T06:34:44;4.63;;;2.63;;
7493;SDS011;3788;49.902;8.590;2023-07-31T06:37:12;3.10;;;2.33;;
7493;SDS011;3788;49.902;8.590;2023-07-31T06:39:39;4.20;;;2.57;;
7493;SDS011;3788;49.902;8.590;2023-07-31T06:42:06;3.47;;;2.20;;
7493;SDS011;3788;49.902;8.590;2023-07-31T06:44:33;4.40;;;2.30;;
7493;SDS011;3788;49.902;8.590;2023-07-31T06:46:59;4.10;;;2.10;;
7493;SDS011;3788;49.902;8.590;2023-07-31T06:49:26;4.17;;;2.23;;
7493;SDS011;3788;49.902;8.590;2023-07-31T06:51:53;4.83;;;2.20;;
7493;SDS011;3788;49.902;8.590;2023-07-31T06:54:21;4.20;;;2.30;;
7493;SDS011;3788;49.902;8.590;2023-07-31T06:56:49;4.87;;;2.30;;
7493;SDS011;3788;49.902;8.590;2023-07-31T06:59:15;3.03;;;1.90;;
7493;SDS011;3788;49.902;8.590;2023-07-31T07:01:42;4.27;;;2.83;;
7493;SDS011;3788;49.902;8.590;2023-07-31T07:04:09;4.97;;;2.30;;
7493;SDS011;3788;49.902;8.590;2023-07-31T07:06:35;2.53;;;2.03;;
7493;SDS011;3788;49.902;8.590;2023-07-31T07:09:02;5.47;;;2.30;;
7493;SDS011;3788;49.902;8.590;2023-07-31T07:11:30;4.43;;;2.00;;
7493;SDS011;3788;49.902;8.590;2023-07-31T07:13:57;4.80;;;2.27;;
7493;SDS011;3788;49.902;8.590;2023-07-31T07:16:24;5.60;;;3.23;;
7493;SDS011;3788;49.902;8.590;2023-07-31T07:18:50;4.07;;;2.10;;
7493;SDS011;3788;49.902;8.590;2023-07-31T07:21:17;6.03;;;2.43;;
7493;SDS011;3788;49.902;8.590;2023-07-31T07:23:43;3.33;;;2.20;;
7493;SDS011;3788;49.902;8.590;2023-07-31T07:26:11;2.97;;;2.10;;
7493;SDS011;3788;49.902;8.590;2023-07-31T07:28:39;2.83;;;1.90;;
7493;SDS011;3788;49.902;8.590;2023-07-31T07:31:06;4.60;;;2.33;;
7493;SDS011;3788;49.902;8.590;2023-07-31T07:33:33;5.03;;;2.43;;
7493;SDS011;3788;49.902;8.590;2023-07-31T07:36:00;5.40;;;2.60;;
7493;SDS011;3788;49.902;8.590;2023-07-31T07:38:27;3.27;;;2.13;;
7493;SDS011;3788;49.902;8.590;2023-07-31T07:40:53;3.13;;;2.40;;
7493;SDS011;3788;49.902;8.590;2023-07-31T07:43:20;2.47;;;1.90;;
7493;SDS011;3788;49.902;8.590;2023-07-31T07:45:49;4.67;;;2.30;;
7493;SDS011;3788;49.902;8.590;2023-07-31T07:48:16;3.40;;;2.20;;
7493;SDS011;3788;49.902;8.590;2023-07-31T07:50:43;8.03;;;2.70;;
7493;SDS011;3788;49.902;8.590;2023-07-31T07:53:09;5.00;;;2.67;;
7493;SDS011;3788;49.902;8.590;2023-07-31T07:55:36;3.37;;;2.00;;
7493;SDS011;3788;49.902;8.590;2023-07-31T07:58:03;3.80;;;2.30;;
7493;SDS011;3788;49.902;8.590;2023-07-31T08:00:30;4.77;;;2.70;;
7493;SDS011;3788;49.902;8.590;2023-07-31T08:02:58;4.63;;;2.20;;
7493;SDS011;3788;49.902;8.590;2023-07-31T08:05:24;3.20;;;2.30;;
7493;SDS011;3788;49.902;8.590;2023-07-31T08:07:51;4.70;;;2.43;;
7493;SDS011;3788;49.902;8.590;2023-07-31T08:10:18;5.87;;;2.43;;
7493;SDS011;3788;49.902;8.590;2023-07-31T08:12:44;5.57;;;2.00;;
7493;SDS011;3788;49.902;8.590;2023-07-31T08:15:11;3.57;;;2.13;;
7493;SDS011;3788;49.902;8.590;2023-07-31T08:17:38;2.87;;;2.30;;
7493;SDS011;3788;49.902;8.590;2023-07-31T08:20:07;4.53;;;2.13;;
7493;SDS011;3788;49.902;8.590;2023-07-31T08:22:34;4.20;;;2.20;;
7493;SDS011;3788;49.902;8.590;2023-07-31T08:25:01;4.20;;;2.33;;
7493;SDS011;3788;49.902;8.590;2023-07-31T08:27:28;5.20;;;2.30;;
7493;SDS011;3788;49.902;8.590;2023-07-31T08:29:54;3.20;;;2.23;;
7493;SDS011;3788;49.902;8.590;2023-07-31T08:32:21;2.40;;;2.20;;
7493;SDS011;3788;49.902;8.590;2023-07-31T08:34:48;3.07;;;1.80;;
7493;SDS011;3788;49.902;8.590;2023-07-31T08:37:16;5.10;;;2.03;;
7493;SDS011;3788;49.902;8.590;2023-07-31T08:39:43;3.93;;;2.50;;
7493;SDS011;3788;49.902;8.590;2023-07-31T08:42:09;3.70;;;2.10;;
7493;SDS011;3788;49.902;8.590;2023-07-31T08:44:36;4.00;;;2.20;;
7493;SDS011;3788;49.902;8.590;2023-07-31T08:47:04;6.07;;;2.40;;
7493;SDS011;3788;49.902;8.590;2023-07-31T08:49:32;4.87;;;2.80;;
7493;SDS011;3788;49.902;8.590;2023-07-31T08:52:01;3.93;;;2.37;;
7493;SDS011;3788;49.902;8.590;2023-07-31T08:54:30;4.53;;;2.23;;
7493;SDS011;3788;49.902;8.590;2023-07-31T08:56:58;2.77;;;2.20;;
7493;SDS011;3788;49.902;8.590;2023-07-31T08:59:25;5.37;;;2.30;;
7493;SDS011;3788;49.902;8.590;2023-07-31T09:01:55;2.93;;;2.33;;
7493;SDS011;3788;49.902;8.590;2023-07-31T09:04:23;4.60;;;2.30;;
7493;SDS011;3788;49.902;8.590;2023-07-31T09:06:50;4.23;;;2.80;;
7493;SDS011;3788;49.902;8.590;2023-07-31T09:09:22;6.27;;;2.73;;
7493;SDS011;3788;49.902;8.590;2023-07-31T09:11:50;4.60;;;2.90;;
7493;SDS011;3788;49.902;8.590;2023-07-31T09:14:18;4.63;;;2.40;;
7493;SDS011;3788;49.902;8.590;2023-07-31T09:16:52;4.97;;;2.43;;
7493;SDS011;3788;49.902;8.590;2023-07-31T09:19:26;3.17;;;2.50;;
7493;SDS011;3788;49.902;8.590;2023-07-31T09:21:54;2.77;;;2.10;;
7493;SDS011;3788;49.902;8.590;2023-07-31T09:24:27;4.40;;;2.40;;
7493;SDS011;3788;49.902;8.590;2023-07-31T09:26:56;4.90;;;2.53;;
7493;SDS011;3788;49.902;8.590;2023-07-31T09:29:24;3.40;;;2.50;;
7493;SDS011;3788;49.902;8.590;2023-07-31T09:31:52;2.93;;;2.00;;
7493;SDS011;3788;49.902;8.590;2023-07-31T09:34:20;5.73;;;2.50;;
7493;SDS011;3788;49.902;8.590;2023-07-31T09:36:54;3.10;;;2.30;;
7493;SDS011;3788;49.902;8.590;2023-07-31T09:39:21;7.97;;;2.37;;
7493;SDS011;3788;49.902;8.590;2023-07-31T09:41:53;5.53;;;2.20;;
7493;SDS011;3788;49.902;8.590;2023-07-31T09:44:22;5.17;;;2.60;;
7493;SDS011;3788;49.902;8.590;2023-07-31T09:47:04;4.20;;;2.70;;
7493;SDS011;3788;49.902;8.590;2023-07-31T09:49:31;4.13;;;2.30;;
7493;SDS011;3788;49.902;8.590;2023-07-31T09:51:58;3.17;;;2.20;;
7493;SDS011;3788;49.902;8.590;2023-07-31T09:54:25;2.90;;;2.30;;
7493;SDS011;3788;49.902;8.590;2023-07-31T09:56:51;5.23;;;2.50;;
7493;SDS011;3788;49.902;8.590;2023-07-31T09:59:20;3.57;;;2.13;;
7493;SDS011;3788;49.902;8.590;2023-07-31T10:01:48;2.90;;;2.27;;
7493;SDS011;3788;49.902;8.590;2023-07-31T10:04:16;3.87;;;2.30;;
7493;SDS011;3788;49.902;8.590;2023-07-31T10:06:50;4.77;;;2.63;;
7493;SDS011;3788;49.902;8.590;2023-07-31T10:09:20;3.47;;;2.13;;
7493;SDS011;3788;49.902;8.590;2023-07-31T10:11:51;4.50;;;2.70;;
7493;SDS011;3788;49.902;8.590;2023-07-31T10:14:23;3.73;;;2.33;;
7493;SDS011;3788;49.902;8.590;2023-07-31T10:16:54;5.33;;;2.60;;
7493;SDS011;3788;49.902;8.590;2023-07-31T10:19:23;2.63;;;2.10;;
7493;SDS011;3788;49.902;8.590;2023-07-31T10:21:49;5.97;;;2.53;;
7493;SDS011;3788;49.902;8.590;2023-07-31T10:24:21;4.70;;;2.90;;
7493;SDS011;3788;49.902;8.590;2023-07-31T10:26:49;5.43;;;2.20;;
7493;SDS011;3788;49.902;8.590;2023-07-31T10:29:19;4.77;;;2.60;;
7493;SDS011;3788;49.902;8.590;2023-07-31T10:31:50;2.60;;;2.20;;
7493;SDS011;3788;49.902;8.590;2023-07-31T10:34:18;4.93;;;2.40;;
7493;SDS011;3788;49.902;8.590;2023-07-31T10:36:45;4.90;;;3.30;;
7493;SDS011;3788;49.902;8.590;2023-07-31T10:41:59;3.63;;;2.10;;
7493;SDS011;3788;49.902;8.590;2023-07-31T10:44:36;4.97;;;2.60;;
7493;SDS011;3788;49.902;8.590;2023-07-31T10:47:04;5.93;;;2.50;;
7493;SDS011;3788;49.902;8.590;2023-07-31T10:49:32;5.03;;;2.60;;
7493;SDS011;3788;49.902;8.590;2023-07-31T10:51:59;4.18;;;2.80;;
7493;SDS011;3788;49.902;8.590;2023-07-31T10:54:28;4.47;;;2.77;;
7493;SDS011;3788;49.902;8.590;2023-07-31T10:56:55;5.30;;;2.77;;
7493;SDS011;3788;49.902;8.590;2023-07-31T10:59:26;4.00;;;2.33;;
7493;SDS011;3788;49.902;8.590;2023-07-31T11:01:54;3.67;;;2.00;;
7493;SDS011;3788;49.902;8.590;2023-07-31T11:04:24;3.33;;;2.40;;
7493;SDS011;3788;49.902;8.590;2023-07-31T11:06:55;3.60;;;2.10;;
7493;SDS011;3788;49.902;8.590;2023-07-31T11:09:24;4.40;;;2.30;;
7493;SDS011;3788;49.902;8.590;2023-07-31T11:11:55;4.93;;;2.50;;
7493;SDS011;3788;49.902;8.590;2023-07-31T11:14:22;3.27;;;1.97;;
7493;SDS011;3788;49.902;8.590;2023-07-31T11:16:49;6.80;;;2.87;;
7493;SDS011;3788;49.902;8.590;2023-07-31T11:19:20;3.13;;;2.40;;
7493;SDS011;3788;49.902;8.590;2023-07-31T11:21:49;3.37;;;2.60;;
7493;SDS011;3788;49.902;8.590;2023-07-31T11:24:15;4.87;;;2.63;;
7493;SDS011;3788;49.902;8.590;2023-07-31T11:26:47;4.70;;;2.50;;
7493;SDS011;3788;49.902;8.590;2023-07-31T11:29:15;2.93;;;2.40;;
7493;SDS011;3788;49.902;8.590;2023-07-31T11:31:42;3.77;;;2.30;;
7493;SDS011;3788;49.902;8.590;2023-07-31T11:34:10;6.70;;;2.80;;
7493;SDS011;3788;49.902;8.590;2023-07-31T11:36:37;4.07;;;2.67;;
7493;SDS011;3788;49.902;8.590;2023-07-31T11:39:06;5.57;;;2.57;;
7493;SDS011;3788;49.902;8.590;2023-07-31T11:41:34;3.27;;;2.43;;
7493;SDS011;3788;49.902;8.590;2023-07-31T11:44:00;3.67;;;2.30;;
7493;SDS011;3788;49.902;8.590;2023-07-31T11:46:27;3.97;;;2.63;;
7493;SDS011;3788;49.902;8.590;2023-07-31T11:48:58;3.20;;;2.43;;
7493;SDS011;3788;49.902;8.590;2023-07-31T11:51:26;3.47;;;2.37;;
7493;SDS011;3788;49.902;8.590;2023-07-31T11:53:54;4.17;;;2.67;;
7493;SDS011;3788;49.902;8.590;2023-07-31T11:56:25;4.87;;;2.67;;
7493;SDS011;3788;49.902;8.590;2023-07-31T11:58:53;3.63;;;2.30;;
7493;SDS011;3788;49.902;8.590;2023-07-31T12:01:23;5.80;;;2.60;;
7493;SDS011;3788;49.902;8.590;2023-07-31T12:03:50;4.80;;;2.77;;
7493;SDS011;3788;49.902;8.590;2023-07-31T12:06:18;4.03;;;2.53;;
7493;SDS011;3788;49.902;8.590;2023-07-31T12:08:46;3.20;;;2.47;;
7493;SDS011;3788;49.902;8.590;2023-07-31T12:11:12;3.73;;;2.60;;
7493;SDS011;3788;49.902;8.590;2023-07-31T12:13:41;5.13;;;2.67;;
7493;SDS011;3788;49.902;8.590;2023-07-31T12:16:07;2.90;;;2.60;;
7493;SDS011;3788;49.902;8.590;2023-07-31T12:18:35;3.43;;;2.57;;
7493;SDS011;3788;49.902;8.590;2023-07-31T12:21:04;2.73;;;2.23;;
7493;SDS011;3788;49.902;8.590;2023-07-31T12:23:32;3.77;;;2.30;;
7493;SDS011;3788;49.902;8.590;2023-07-31T12:26:00;3.57;;;2.27;;
7493;SDS011;3788;49.902;8.590;2023-07-31T12:28:27;4.93;;;2.43;;
7493;SDS011;3788;49.902;8.590;2023-07-31T12:30:57;3.77;;;2.57;;
7493;SDS011;3788;49.902;8.590;2023-07-31T12:33:30;4.43;;;2.47;;
7493;SDS011;3788;49.902;8.590;2023-07-31T12:35:58;4.33;;;2.50;;
7493;SDS011;3788;49.902;8.590;2023-07-31T12:38:26;4.20;;;2.33;;
7493;SDS011;3788;49.902;8.590;2023-07-31T12:40:53;5.80;;;2.33;;
7493;SDS011;3788;49.902;8.590;2023-07-31T12:43:19;3.37;;;2.27;;
7493;SDS011;3788;49.902;8.590;2023-07-31T12:45:46;3.53;;;2.30;;
7493;SDS011;3788;49.902;8.590;2023-07-31T12:48:14;2.30;;;2.10;;
7493;SDS011;3788;49.902;8.590;2023-07-31T12:50:41;3.33;;;2.40;;
7493;SDS011;3788;49.902;8.590;2023-07-31T12:53:08;4.43;;;2.20;;
7493;SDS011;3788;49.902;8.590;2023-07-31T12:55:34;5.50;;;2.57;;
7493;SDS011;3788;49.902;8.590;2023-07-31T12:58:01;3.20;;;2.43;;
7493;SDS011;3788;49.902;8.590;2023-07-31T13:00:28;2.63;;;2.40;;
7493;SDS011;3788;49.902;8.590;2023-07-31T13:02:55;5.03;;;2.33;;
7493;SDS011;3788;49.902;8.590;2023-07-31T13:05:23;3.30;;;2.20;;
7493;SDS011;3788;49.902;8.590;2023-07-31T13:07:50;4.43;;;2.83;;
7493;SDS011;3788;49.902;8.590;2023-07-31T13:10:16;4.53;;;3.00;;
7493;SDS011;3788;49.902;8.590;2023-07-31T13:12:43;3.93;;;2.70;;
7493;SDS011;3788;49.902;8.590;2023-07-31T13:15:10;5.00;;;2.57;;
7493;SDS011;3788;49.902;8.590;2023-07-31T13:17:36;3.57;;;2.40;;
7493;SDS011;3788;49.902;8.590;2023-07-31T13:20:03;4.47;;;2.27;;
7493;SDS011;3788;49.902;8.590;2023-07-31T13:25:00;5.30;;;2.40;;
7493;SDS011;3788;49.902;8.590;2023-07-31T13:27:26;3.57;;;2.50;;
7493;SDS011;3788;49.902;8.590;2023-07-31T13:29:53;2.87;;;2.50;;
7493;SDS011;3788;49.902;8.590;2023-07-31T13:32:20;2.70;;;2.23;;
7493;SDS011;3788;49.902;8.590;2023-07-31T13:34:47;2.63;;;2.23;;
7493;SDS011;3788;49.902;8.590;2023-07-31T13:37:14;3.33;;;2.43;;
7493;SDS011;3788;49.902;8.590;2023-07-31T13:39:42;3.27;;;2.23;;
7493;SDS011;3788;49.902;8.590;2023-07-31T13:42:09;3.13;;;2.50;;
7493;SDS011;3788;49.902;8.590;2023-07-31T13:44:37;4.00;;;2.57;;
7493;SDS011;3788;49.902;8.590;2023-07-31T13:47:04;4.37;;;2.17;;
7493;SDS011;3788;49.902;8.590;2023-07-31T13:49:31;2.70;;;2.00;;
7493;SDS011;3788;49.902;8.590;2023-07-31T13:51:59;5.07;;;2.20;;
7493;SDS011;3788;49.902;8.590;2023-07-31T13:54:26;3.83;;;2.20;;
7493;SDS011;3788;49.902;8.590;2023-07-31T13:56:54;2.50;;;2.30;;
7493;SDS011;3788;49.902;8.590;2023-07-31T13:59:20;2.93;;;2.20;;
7493;SDS011;3788;49.902;8.590;2023-07-31T14:01:47;4.50;;;2.17;;
7493;SDS011;3788;49.902;8.590;2023-07-31T14:04:14;3.67;;;2.13;;
7493;SDS011;3788;49.902;8.590;2023-07-31T14:06:42;5.27;;;2.80;;
7493;SDS011;3788;49.902;8.590;2023-07-31T14:09:09;2.63;;;2.30;;
7493;SDS011;3788;49.902;8.590;2023-07-31T14:11:35;4.83;;;2.50;;
7493;SDS011;3788;49.902;8.590;2023-07-31T14:14:03;4.47;;;2.47;;
7493;SDS011;3788;49.902;8.590;2023-07-31T14:16:30;2.93;;;2.63;;
7493;SDS011;3788;49.902;8.590;2023-07-31T14:18:57;3.80;;;2.47;;
7493;SDS011;3788;49.902;8.590;2023-07-31T14:21:24;3.83;;;2.53;;
7493;SDS011;3788;49.902;8.590;2023-07-31T14:23:51;4.03;;;2.40;;
7493;SDS011;3788;49.902;8.590;2023-07-31T14:26:17;5.40;;;2.73;;
7493;SDS011;3788;49.902;8.590;2023-07-31T14:28:44;3.30;;;2.40;;
7493;SDS011;3788;49.902;8.590;2023-07-31T14:31:12;5.17;;;2.63;;
7493;SDS011;3788;49.902;8.590;2023-07-31T14:33:39;6.47;;;2.77;;
7493;SDS011;3788;49.902;8.590;2023-07-31T14:36:05;3.77;;;2.10;;
7493;SDS011;3788;49.902;8.590;2023-07-31T14:38:32;3.70;;;2.33;;
7493;SDS011;3788;49.902;8.590;2023-07-31T14:40:59;4.17;;;2.43;;
7493;SDS011;3788;49.902;8.590;2023-07-31T14:43:25;3.47;;;2.27;;
7493;SDS011;3788;49.902;8.590;2023-07-31T14:45:52;3.50;;;2.27;;
7493;SDS011;3788;49.902;8.590;2023-07-31T14:48:22;3.70;;;2.27;;
7493;SDS011;3788;49.902;8.590;2023-07-31T14:50:49;2.80;;;1.97;;
7493;SDS011;3788;49.902;8.590;2023-07-31T14:53:15;3.67;;;2.10;;
7493;SDS011;3788;49.902;8.590;2023-07-31T14:55:42;2.67;;;2.20;;
7493;SDS011;3788;49.902;8.590;2023-07-31T14:58:09;3.40;;;2.30;;
7493;SDS011;3788;49.902;8.590;2023-07-31T15:00:36;3.47;;;2.10;;
7493;SDS011;3788;49.902;8.590;2023-07-31T15:03:03;3.13;;;1.97;;
7493;SDS011;3788;49.902;8.590;2023-07-31T15:05:31;2.83;;;2.30;;
7493;SDS011;3788;49.902;8.590;2023-07-31T15:07:57;3.87;;;2.03;;
7493;SDS011;3788;49.902;8.590;2023-07-31T15:10:24;3.17;;;2.40;;
7493;SDS011;3788;49.902;8.590;2023-07-31T15:12:51;2.63;;;1.80;;
7493;SDS011;3788;49.902;8.590;2023-07-31T15:15:17;3.50;;;1.97;;
7493;SDS011;3788;49.902;8.590;2023-07-31T15:17:44;1.97;;;1.77;;
7493;SDS011;3788;49.902;8.590;2023-07-31T15:20:11;3.07;;;2.00;;
7493;SDS011;3788;49.902;8.590;2023-07-31T15:22:39;2.83;;;2.20;;